Terminal Aerodrome Forecast
Issued by NWS Nashville, TN

Home | Current Version | Previous Version | Text Only | Print | Product List | Glossary On
Versions: 1 2 3 4 5 6 7 8 9 10 11 12 13 14 15 16 17 18 19 20 21 22
000
FTUS44 KOHX 241120
TAFCSV
TAF
KCSV 241120Z 2412/2512 VRB03KT P6SM VCSH SCT006 OVC015
      TEMPO 2412/2416 3SM -DZ BR OVC006
     FM241800 31007KT P6SM VCSH SCT007 OVC015
     FM250300 30004KT 4SM BR OVC004=

USA.gov is the U.S. government's official web portal to all federal, state and local government web resources and services.